Time;durP1;ratioP1;P1;durP2;ratioP2;P2;SDS_P1;SDS_P2;PMS_P1;PMS_P2;Temp;Humidity;BMP_temperature;BMP_pressure;BME280_temperature;BME280_humidity;BME280_pressure;Samples;Min_cycle;Max_cycle;Signal;HPM_P1;HPM_P2
2021/12/19 17:17:34;;;;;;;10.35;6.88;;;3.20;99.90;;;;;;5097798;28;20398;-94
2021/12/19 17:20:09;;;;;;;6.18;4.72;;;3.30;99.90;;;;;;5098013;28;20036;-94
2021/12/19 17:22:36;;;;;;;8.93;6.10;;;3.30;99.90;;;;;;5084742;28;20089;-94
2021/12/19 17:25:05;;;;;;;9.25;5.65;;;3.30;99.90;;;;;;5100142;28;20028;-94
2021/12/19 17:27:46;;;;;;;10.82;6.70;;;3.30;99.90;;;;;;5100600;28;20203;-94
2021/12/19 17:30:13;;;;;;;9.40;6.63;;;3.30;99.90;;;;;;5103431;28;20079;-93
2021/12/19 17:32:39;;;;;;;8.95;6.15;;;3.20;99.90;;;;;;5101610;28;20024;-93
2021/12/19 17:35:07;;;;;;;11.38;6.70;;;3.20;99.90;;;;;;5098207;28;20021;-93
2021/12/19 17:37:36;;;;;;;8.60;5.85;;;3.30;99.90;;;;;;5084271;28;20044;-93
2021/12/19 17:40:08;;;;;;;8.77;6.03;;;3.20;99.90;;;;;;5100347;28;20028;-94
2021/12/19 17:42:35;;;;;;;9.63;6.88;;;3.30;99.90;;;;;;5100386;28;20261;-93
2021/12/19 17:45:03;;;;;;;10.02;7.07;;;3.30;99.90;;;;;;5098742;28;20056;-93
2021/12/19 17:47:32;;;;;;;8.68;6.50;;;3.30;99.90;;;;;;5100847;28;20024;-94
2021/12/19 17:49:58;;;;;;;10.95;9.18;;;3.30;99.90;;;;;;5097198;28;20073;-93
2021/12/19 17:52:23;;;;;;;9.88;6.50;;;3.30;99.90;;;;;;5096904;28;20024;-93
2021/12/19 17:54:51;;;;;;;9.13;6.80;;;3.20;99.90;;;;;;5098114;28;20039;-92
2021/12/19 17:57:17;;;;;;;8.10;6.13;;;3.20;99.90;;;;;;5096437;28;20025;-92
2021/12/19 17:59:42;;;;;;;6.65;4.90;;;3.10;99.90;;;;;;5097401;28;20032;-92
2021/12/19 18:02:08;;;;;;;11.65;6.55;;;3.10;99.90;;;;;;5098589;28;20103;-93
2021/12/19 18:04:39;;;;;;;12.45;7.20;;;3.00;99.90;;;;;;5095544;28;20028;-91
2021/12/19 18:07:06;;;;;;;13.00;6.78;;;3.00;99.90;;;;;;5101974;28;20048;-92
2021/12/19 18:09:33;;;;;;;6.88;4.68;;;3.00;99.90;;;;;;5098818;28;20035;-93
2021/12/19 18:11:59;;;;;;;6.15;4.93;;;3.00;99.90;;;;;;5080273;28;20056;-93
2021/12/19 18:14:24;;;;;;;8.18;5.10;;;2.90;99.90;;;;;;5099076;28;20029;-93
2021/12/19 18:16:51;;;;;;;10.63;6.20;;;2.90;99.90;;;;;;5073797;28;20057;-93
2021/12/19 18:19:17;;;;;;;11.20;5.47;;;2.90;99.90;;;;;;5077447;28;20024;-92
2021/12/19 18:21:43;;;;;;;7.18;5.00;;;2.90;99.90;;;;;;5046630;28;20040;-92
2021/12/19 18:24:09;;;;;;;7.05;4.80;;;3.00;99.90;;;;;;5058923;28;20025;-91
2021/12/19 18:26:34;;;;;;;9.80;4.90;;;3.00;99.90;;;;;;5058967;28;20032;-93
2021/12/19 18:29:01;;;;;;;9.02;4.80;;;3.00;99.90;;;;;;5044445;28;20021;-92
2021/12/19 18:31:33;;;;;;;9.05;5.13;;;3.10;99.90;;;;;;5045015;28;20491;-92
2021/12/19 18:34:07;;;;;;;12.38;6.57;;;3.10;99.90;;;;;;5044341;28;20071;-93
2021/12/19 18:36:36;;;;;;;12.15;6.57;;;3.20;99.90;;;;;;5045207;28;20017;-92
2021/12/19 18:39:05;;;;;;;7.28;4.22;;;3.10;99.90;;;;;;5046081;28;20037;-92
2021/12/19 18:41:44;;;;;;;8.10;4.85;;;3.10;99.90;;;;;;5065437;28;20028;-92
2021/12/19 18:44:16;;;;;;;7.45;4.32;;;3.20;99.90;;;;;;5046329;28;20056;-92
2021/12/19 18:49:26;;;;;;;9.82;5.82;;;3.20;99.90;;;;;;5063253;28;20032;-92
2021/12/19 18:52:09;;;;;;;9.88;5.70;;;3.20;99.90;;;;;;5046389;28;20029;-92
2021/12/19 18:54:55;;;;;;;8.40;5.60;;;3.10;99.90;;;;;;5047398;28;20028;-93
2021/12/19 18:57:23;;;;;;;7.97;4.97;;;3.20;99.90;;;;;;5048282;28;20021;-93
2021/12/19 19:00:21;;;;;;;4.75;3.70;;;3.10;99.90;;;;;;5065068;28;20021;-92
2021/12/19 19:02:58;;;;;;;;;;;3.20;99.90;;;;;;5031750;28;20029;-92
2021/12/19 19:05:28;;;;;;;7.75;4.53;;;3.20;99.90;;;;;;5034281;28;19964;-93
2021/12/19 19:08:00;;;;;;;;;;;3.20;99.90;;;;;;5035127;28;20036;-93
2021/12/19 19:10:28;;;;;;;7.57;5.20;;;3.10;99.90;;;;;;5050272;28;19904;-93
2021/12/19 19:12:56;;;;;;;6.70;4.22;;;3.10;99.90;;;;;;5035905;28;20039;-92
2021/12/19 19:15:22;;;;;;;4.18;3.67;;;3.00;99.90;;;;;;5036195;28;20171;-91
2021/12/19 19:17:47;;;;;;;9.05;6.22;;;3.00;99.90;;;;;;5067306;28;20071;-91
2021/12/19 19:20:13;;;;;;;8.77;2.75;;;2.90;99.90;;;;;;5070832;28;20025;-90
2021/12/19 19:22:40;;;;;;;4.30;2.10;;;2.30;99.90;;;;;;5051500;28;20091;-91
2021/12/19 19:25:06;;;;;;;2.10;1.75;;;1.80;99.90;;;;;;5068320;28;20056;-89
2021/12/19 19:27:32;;;;;;;2.92;2.30;;;1.70;99.90;;;;;;5062935;28;20115;-90
2021/12/19 19:29:58;;;;;;;6.55;2.97;;;1.70;99.90;;;;;;5063626;28;20068;-90
2021/12/19 19:32:24;;;;;;;6.05;2.90;;;1.70;99.90;;;;;;5062193;28;20040;-91
2021/12/19 19:34:50;;;;;;;5.28;3.63;;;1.80;99.90;;;;;;5063128;28;20062;-91
2021/12/19 19:37:18;;;;;;;4.85;3.35;;;1.70;99.90;;;;;;5060102;28;20119;-90
2021/12/19 19:39:57;;;;;;;4.50;3.45;;;1.80;99.90;;;;;;5058468;28;20035;-91
2021/12/19 19:50:36;;;;;;;13.18;7.32;;;1.90;99.90;;;;;;5077143;28;20434;-90
2021/12/19 19:53:02;;;;;;;11.73;7.18;;;2.00;99.90;;;;;;5058179;28;20025;-91
2021/12/19 19:55:28;;;;;;;10.50;6.20;;;1.90;99.90;;;;;;5058332;28;20024;-91
2021/12/19 19:57:54;;;;;;;7.30;5.05;;;1.90;99.90;;;;;;5057792;28;20024;-91
2021/12/19 20:00:20;;;;;;;6.85;4.70;;;1.90;99.90;;;;;;5075839;28;20486;-90
2021/12/19 20:02:46;;;;;;;8.90;5.50;;;1.90;99.90;;;;;;5057943;28;20391;-90
2021/12/19 20:05:12;;;;;;;6.82;5.35;;;1.90;99.90;;;;;;5058021;28;20020;-91
2021/12/19 20:07:39;;;;;;;8.43;4.43;;;1.80;99.90;;;;;;5057990;28;20120;-92
2021/12/19 20:10:07;;;;;;;7.70;5.13;;;1.80;99.90;;;;;;5057695;28;20032;-91
2021/12/19 20:12:33;;;;;;;6.90;4.78;;;1.80;99.90;;;;;;5057873;28;20017;-91
2021/12/19 20:14:58;;;;;;;6.25;4.53;;;1.80;99.90;;;;;;5057844;28;20027;-91
2021/12/19 20:17:24;;;;;;;7.47;5.25;;;1.90;99.90;;;;;;5073615;28;20048;-91
2021/12/19 20:19:50;;;;;;;6.15;4.70;;;1.90;99.90;;;;;;5074631;28;20054;-91
2021/12/19 20:22:18;;;;;;;6.20;4.65;;;1.90;99.90;;;;;;5074513;28;20119;-92
2021/12/19 20:24:44;;;;;;;8.40;4.88;;;1.90;99.90;;;;;;5074599;28;20021;-91
2021/12/19 20:27:10;;;;;;;6.57;4.70;;;1.90;99.90;;;;;;5074716;28;20028;-91
2021/12/19 20:29:36;;;;;;;6.45;4.80;;;2.00;99.90;;;;;;5074170;28;20368;-92
2021/12/19 20:32:03;;;;;;;6.10;4.55;;;2.00;99.90;;;;;;5077505;28;20062;-91
2021/12/19 20:34:29;;;;;;;6.20;4.88;;;1.90;99.90;;;;;;5074765;28;20090;-92
2021/12/19 20:36:55;;;;;;;6.68;4.57;;;1.90;99.90;;;;;;5074869;28;20546;-90
2021/12/19 20:39:21;;;;;;;6.18;4.65;;;1.90;99.90;;;;;;5076084;28;20028;-90
2021/12/19 20:41:48;;;;;;;9.52;5.18;;;1.90;99.90;;;;;;5074998;28;20022;-92
2021/12/19 20:44:15;;;;;;;6.03;4.68;;;1.80;99.90;;;;;;5075899;28;20028;-91
2021/12/19 20:46:43;;;;;;;9.15;4.60;;;1.80;99.90;;;;;;5074788;28;20021;-91
2021/12/19 20:49:09;;;;;;;6.35;4.13;;;1.80;99.90;;;;;;5074169;28;20035;-91
2021/12/19 20:51:36;;;;;;;6.57;4.50;;;1.80;99.90;;;;;;5074624;28;20078;-92
2021/12/19 20:54:04;;;;;;;8.48;4.70;;;1.60;99.90;;;;;;5074137;28;20027;-90
2021/12/19 20:56:30;;;;;;;7.32;5.60;;;1.60;99.90;;;;;;5074059;28;20406;-92
2021/12/19 20:58:56;;;;;;;7.05;5.00;;;1.60;99.90;;;;;;5074372;28;20024;-92
2021/12/19 21:01:23;;;;;;;7.60;4.80;;;1.60;99.90;;;;;;5074025;28;20024;-91
2021/12/19 21:03:49;;;;;;;6.78;4.65;;;1.60;99.90;;;;;;5074397;28;20024;-91
2021/12/19 21:06:15;;;;;;;8.27;5.15;;;1.50;99.90;;;;;;5073679;28;20445;-91
2021/12/19 21:08:42;;;;;;;7.82;4.75;;;1.50;99.90;;;;;;5074119;28;20028;-91
2021/12/19 21:11:09;;;;;;;8.60;5.20;;;1.50;99.90;;;;;;5073659;28;20029;-91
2021/12/19 21:13:51;;;;;;;7.30;4.85;;;1.50;99.90;;;;;;5073680;28;20135;-91
2021/12/19 21:21:47;;;;;;;6.72;5.03;;;1.60;99.90;;;;;;5075309;28;20052;-90
2021/12/19 21:24:12;;;;;;;6.70;4.57;;;1.50;99.90;;;;;;5074081;28;20471;-92
2021/12/19 21:26:38;;;;;;;9.07;4.40;;;1.60;99.90;;;;;;5074252;28;20469;-91
2021/12/19 21:29:04;;;;;;;5.97;4.40;;;1.50;99.90;;;;;;5074128;28;20535;-92
2021/12/19 21:31:29;;;;;;;5.45;4.38;;;1.40;99.90;;;;;;5073881;28;20025;-91
2021/12/19 21:33:59;;;;;;;5.90;4.45;;;1.40;99.90;;;;;;5074223;28;20025;-91
2021/12/19 21:39:13;;;;;;;7.13;4.22;;;1.40;99.90;;;;;;5074873;28;20098;-92
2021/12/19 21:41:39;;;;;;;8.40;4.78;;;1.30;99.90;;;;;;5073371;28;20017;-91
2021/12/19 21:44:05;;;;;;;8.15;5.13;;;1.30;99.90;;;;;;5073158;28;20048;-91
2021/12/19 21:46:36;;;;;;;7.72;5.10;;;1.20;99.90;;;;;;5073205;28;20086;-91
2021/12/19 21:49:03;;;;;;;;;;;1.20;99.90;;;;;;5073467;28;20029;-92
2021/12/19 21:51:29;;;;;;;8.48;4.70;;;1.10;99.90;;;;;;5072972;28;19904;-92
2021/12/19 21:53:54;;;;;;;7.22;4.65;;;1.10;99.90;;;;;;5073134;28;20084;-93
2021/12/19 21:56:21;;;;;;;6.93;4.15;;;1.10;99.90;;;;;;5073558;28;20386;-94
2021/12/19 21:58:48;;;;;;;6.95;4.20;;;1.00;99.90;;;;;;5074185;28;20035;-95
2021/12/19 22:01:17;;;;;;;6.90;4.78;;;1.00;99.90;;;;;;5080392;28;20016;-96
2021/12/19 22:03:43;;;;;;;30.80;12.18;;;1.00;99.90;;;;;;5080565;28;20021;-93
2021/12/19 22:06:09;;;;;;;15.50;7.47;;;1.00;99.90;;;;;;5081628;28;20028;-96
2021/12/19 22:08:36;;;;;;;11.73;6.43;;;1.00;99.90;;;;;;5083636;28;20013;-95
2021/12/19 22:11:09;;;;;;;15.07;7.35;;;0.90;99.90;;;;;;5078144;28;20105;-95
2021/12/19 22:16:19;;;;;;;11.52;6.00;;;0.90;99.90;;;;;;5078613;28;20063;-94
2021/12/19 22:18:45;;;;;;;10.90;5.68;;;0.80;99.90;;;;;;5060636;28;20116;-95
2021/12/19 22:21:11;;;;;;;8.27;5.43;;;0.80;99.90;;;;;;5061247;28;20056;-94
2021/12/19 22:23:37;;;;;;;7.13;4.78;;;0.80;99.90;;;;;;5061449;28;20021;-95
2021/12/19 22:26:03;;;;;;;5.97;4.32;;;0.80;99.90;;;;;;5062056;28;20024;-95
2021/12/19 22:28:29;;;;;;;8.75;4.03;;;0.70;99.90;;;;;;5062399;28;20052;-94
2021/12/19 22:30:55;;;;;;;6.13;4.13;;;0.70;99.90;;;;;;5062867;28;20027;-95
2021/12/19 22:33:21;;;;;;;9.10;4.30;;;0.80;99.90;;;;;;5062279;28;20044;-95
2021/12/19 22:35:46;;;;;;;7.40;3.95;;;0.70;99.90;;;;;;5062159;28;20115;-94
2021/12/19 22:38:12;;;;;;;8.55;4.30;;;0.70;99.90;;;;;;5062606;28;20039;-94
2021/12/19 22:40:38;;;;;;;7.68;4.45;;;0.80;99.90;;;;;;5062071;28;20064;-95
2021/12/19 22:43:05;;;;;;;8.48;4.43;;;0.80;99.90;;;;;;5060076;28;20478;-96
2021/12/19 22:45:32;;;;;;;7.07;4.30;;;0.70;99.90;;;;;;5059823;28;20032;-95
2021/12/19 22:47:58;;;;;;;7.18;4.22;;;0.70;99.90;;;;;;5060015;28;20052;-95
2021/12/19 22:50:24;;;;;;;7.80;4.45;;;0.70;99.90;;;;;;5061468;28;20031;-94
2021/12/19 22:52:51;;;;;;;7.22;4.88;;;0.70;99.90;;;;;;5061121;28;20463;-94
2021/12/19 22:55:17;;;;;;;7.00;4.60;;;0.70;99.90;;;;;;5061091;28;20052;-94
2021/12/19 22:57:43;;;;;;;6.88;3.97;;;0.70;99.90;;;;;;5061312;28;20023;-94
2021/12/19 23:00:49;;;;;;;5.93;4.30;;;0.70;99.90;;;;;;5060366;28;20024;-93
2021/12/19 23:03:17;;;;;;;5.65;3.75;;;0.70;99.90;;;;;;5058717;28;20116;-95
2021/12/19 23:05:46;;;;;;;6.35;4.43;;;0.80;99.90;;;;;;5062088;28;20492;-92
2021/12/19 23:08:19;;;;;;;8.73;4.45;;;0.80;99.90;;;;;;5059634;28;20037;-94
2021/12/19 23:11:10;;;;;;;9.82;5.93;;;0.80;99.90;;;;;;5060121;28;20025;-95
2021/12/19 23:13:44;;;;;;;9.60;5.07;;;0.70;99.90;;;;;;5059764;28;20020;-94
2021/12/19 23:16:24;;;;;;;14.23;7.20;;;0.80;99.90;;;;;;5065467;28;20037;-93
2021/12/19 23:18:55;;;;;;;7.82;4.03;;;0.80;99.90;;;;;;5075949;28;20059;-94
2021/12/19 23:21:22;;;;;;;14.52;7.50;;;0.80;99.90;;;;;;5076171;28;20025;-94
2021/12/19 23:23:48;;;;;;;8.00;4.32;;;0.80;99.90;;;;;;5075528;28;20030;-95
2021/12/19 23:26:14;;;;;;;7.72;5.40;;;0.80;99.90;;;;;;5075442;28;20035;-94
2021/12/19 23:28:39;;;;;;;6.97;4.93;;;0.90;99.90;;;;;;5064767;28;20103;-94
2021/12/19 23:31:05;;;;;;;8.65;5.28;;;0.90;99.90;;;;;;5055206;28;20033;-93
2021/12/19 23:36:08;;;;;;;11.32;6.18;;;0.80;99.90;;;;;;5056699;28;20090;-94
2021/12/19 23:38:55;;;;;;;7.25;4.28;;;0.80;99.90;;;;;;5055206;28;20108;-93
2021/12/19 23:46:36;;;;;;;6.60;4.43;;;0.90;99.90;;;;;;5057948;28;20035;-95
2021/12/19 23:49:03;;;;;;;5.72;4.18;;;0.80;99.90;;;;;;5055056;28;20025;-94
2021/12/19 23:51:28;;;;;;;6.88;4.03;;;0.80;99.90;;;;;;5054954;28;20075;-90
2021/12/19 23:53:54;;;;;;;7.32;4.55;;;0.80;99.90;;;;;;5054597;28;20025;-94
2021/12/19 23:56:20;;;;;;;6.00;4.07;;;0.80;99.90;;;;;;5054516;28;20035;-94
2021/12/19 23:58:45;;;;;;;5.65;3.90;;;0.80;99.90;;;;;;5054545;28;20151;-94
